Time;durP1;ratioP1;P1;durP2;ratioP2;P2;SDS_P1;SDS_P2;PMS_P1;PMS_P2;Temp;Humidity;BMP_temperature;BMP_pressure;BME280_temperature;BME280_humidity;BME280_pressure;Samples;Min_cycle;Max_cycle;Signal;HPM_P1;HPM_P2
2023/08/20 00:02:21;;;;;;;13.05;11.63;;;22.60;99.90;;;;;;6281873;28;20056;-83
2023/08/20 00:05:23;;;;;;;17.33;11.40;;;22.60;99.90;;;;;;6280199;28;20504;-83
2023/08/20 00:08:24;;;;;;;13.00;11.70;;;22.60;99.90;;;;;;6283062;28;20047;-83
2023/08/20 00:11:26;;;;;;;13.00;11.80;;;22.60;99.90;;;;;;6282193;28;20053;-83
2023/08/20 00:14:54;;;;;;;12.48;11.27;;;22.50;99.90;;;;;;6281527;28;20049;-83
2023/08/20 00:17:56;;;;;;;12.48;11.20;;;22.50;99.90;;;;;;6281589;28;20044;-82
2023/08/20 00:20:59;;;;;;;18.35;12.15;;;22.50;99.90;;;;;;6290195;28;20056;-83
2023/08/20 00:24:01;;;;;;;13.10;11.25;;;22.50;99.90;;;;;;6305201;28;20049;-84
2023/08/20 00:27:03;;;;;;;12.00;10.05;;;22.50;99.90;;;;;;6305997;28;20048;-83
2023/08/20 00:30:08;;;;;;;13.35;10.52;;;22.50;99.90;;;;;;6304375;28;20504;-83
2023/08/20 00:33:09;;;;;;;14.68;11.07;;;22.40;99.90;;;;;;6301977;28;20040;-82
2023/08/20 00:36:11;;;;;;;13.43;10.27;;;22.40;99.90;;;;;;6306407;28;20045;-83
2023/08/20 00:39:13;;;;;;;12.07;10.77;;;22.40;99.90;;;;;;6307469;28;20048;-84
2023/08/20 00:42:17;;;;;;;11.77;10.45;;;22.30;99.90;;;;;;6307325;28;20053;-83
2023/08/20 00:45:20;;;;;;;13.73;10.40;;;22.30;99.90;;;;;;6305961;28;20040;-83
2023/08/20 00:48:21;;;;;;;10.85;9.85;;;22.30;99.90;;;;;;6306210;28;20504;-83
2023/08/20 00:51:24;;;;;;;14.07;11.30;;;22.20;99.90;;;;;;6292173;28;20053;-83
2023/08/20 00:54:28;;;;;;;11.82;9.70;;;22.20;99.90;;;;;;6281762;28;20500;-83
2023/08/20 00:57:29;;;;;;;11.32;10.27;;;22.10;99.90;;;;;;6296081;28;20049;-83
2023/08/20 01:00:32;;;;;;;13.98;10.98;;;22.10;99.90;;;;;;6281893;28;20041;-84
2023/08/20 01:03:34;;;;;;;12.38;11.38;;;22.00;99.90;;;;;;6280815;28;20458;-83
2023/08/20 01:06:54;;;;;;;12.20;11.00;;;22.00;99.90;;;;;;6280733;28;20041;-83
2023/08/20 01:10:05;;;;;;;14.05;11.18;;;22.00;99.90;;;;;;6280415;28;20068;-83
2023/08/20 01:13:08;;;;;;;12.07;10.88;;;21.90;99.90;;;;;;6280267;28;20055;-83
2023/08/20 01:16:11;;;;;;;12.02;10.90;;;21.90;99.90;;;;;;6280300;28;20055;-83
2023/08/20 01:19:17;;;;;;;12.57;10.70;;;21.90;99.90;;;;;;6280285;28;20060;-83
2023/08/20 01:22:41;;;;;;;12.02;10.82;;;21.80;99.90;;;;;;6279463;28;20041;-83
2023/08/20 01:25:59;;;;;;;12.15;10.95;;;21.80;99.90;;;;;;6279518;28;20049;-83
2023/08/20 01:29:03;;;;;;;16.48;11.23;;;21.70;99.90;;;;;;6279709;28;20048;-83
2023/08/20 01:32:06;;;;;;;11.90;10.60;;;21.60;99.90;;;;;;6279722;28;20080;-82
2023/08/20 01:35:12;;;;;;;18.42;12.05;;;21.60;99.90;;;;;;6280115;28;20458;-83
2023/08/20 01:38:13;;;;;;;11.93;10.85;;;21.50;99.90;;;;;;6279150;28;20056;-82
2023/08/20 01:41:15;;;;;;;16.40;12.15;;;21.50;99.90;;;;;;6279955;28;20056;-82
2023/08/20 01:44:18;;;;;;;15.63;12.13;;;21.40;99.90;;;;;;6280866;28;20051;-83
2023/08/20 01:47:20;;;;;;;15.18;11.48;;;21.40;99.90;;;;;;6284093;28;20041;-83
2023/08/20 01:50:22;;;;;;;13.15;11.57;;;21.40;99.90;;;;;;6282694;28;20045;-83
2023/08/20 01:53:23;;;;;;;12.02;10.85;;;21.30;99.90;;;;;;6283811;28;20052;-83
2023/08/20 01:56:25;;;;;;;14.07;11.68;;;21.30;99.90;;;;;;6284282;28;20060;-83
2023/08/20 01:59:28;;;;;;;12.35;11.05;;;21.30;99.90;;;;;;6284204;28;20055;-83
2023/08/20 02:02:30;;;;;;;13.10;11.50;;;21.20;99.90;;;;;;6284659;28;20049;-82
2023/08/20 02:05:32;;;;;;;14.43;12.00;;;21.20;99.90;;;;;;6283884;28;20041;-83
2023/08/20 02:08:33;;;;;;;13.27;11.68;;;21.20;99.90;;;;;;6283494;28;20041;-83
2023/08/20 02:11:35;;;;;;;18.67;11.88;;;21.20;99.90;;;;;;6283440;28;20056;-83
2023/08/20 02:14:38;;;;;;;12.73;11.43;;;21.10;99.90;;;;;;6283397;28;20420;-84
2023/08/20 02:17:40;;;;;;;12.32;10.88;;;21.20;99.90;;;;;;6283622;28;20045;-83
2023/08/20 02:20:44;;;;;;;13.80;11.73;;;21.10;99.90;;;;;;6282938;28;20037;-83
2023/08/20 02:23:46;;;;;;;17.55;13.10;;;21.00;99.90;;;;;;6283171;28;20049;-83
2023/08/20 02:26:47;;;;;;;19.15;12.00;;;21.00;99.90;;;;;;6283301;28;20056;-83
2023/08/20 02:29:51;;;;;;;12.55;11.10;;;20.90;99.90;;;;;;6282616;28;20056;-83
2023/08/20 02:32:53;;;;;;;20.50;11.32;;;20.90;99.90;;;;;;6281472;28;20155;-82
2023/08/20 02:35:54;;;;;;;14.00;12.27;;;20.80;99.90;;;;;;6282967;28;20049;-84
2023/08/20 02:38:56;;;;;;;13.30;11.48;;;20.80;99.90;;;;;;6280520;28;20067;-82
2023/08/20 02:41:58;;;;;;;13.38;11.98;;;20.80;99.90;;;;;;6280444;28;20057;-83
2023/08/20 02:45:01;;;;;;;13.20;11.38;;;20.80;99.90;;;;;;6281556;28;20044;-83
2023/08/20 02:48:03;;;;;;;13.88;11.95;;;20.70;99.90;;;;;;6282906;28;20102;-83
2023/08/20 02:51:04;;;;;;;14.73;13.00;;;20.70;99.90;;;;;;6282607;28;20053;-83
2023/08/20 02:54:06;;;;;;;13.90;12.50;;;20.70;99.90;;;;;;6286174;28;20063;-83
2023/08/20 02:57:08;;;;;;;13.10;11.80;;;20.70;99.90;;;;;;6293284;28;20500;-83
2023/08/20 03:00:13;;;;;;;14.65;13.15;;;20.70;99.90;;;;;;6280511;28;20059;-83
2023/08/20 03:03:15;;;;;;;13.27;11.80;;;20.70;99.90;;;;;;6280831;28;20134;-82
2023/08/20 03:06:18;;;;;;;15.30;11.38;;;20.70;99.90;;;;;;6279204;28;20108;-83
2023/08/20 03:09:20;;;;;;;13.38;10.40;;;20.70;99.90;;;;;;6278455;28;20055;-83
2023/08/20 03:12:21;;;;;;;13.15;11.85;;;20.70;99.90;;;;;;6278489;28;20523;-82
2023/08/20 03:15:24;;;;;;;14.20;12.75;;;20.70;99.90;;;;;;6278817;28;20056;-82
2023/08/20 03:18:26;;;;;;;13.70;11.68;;;20.70;99.90;;;;;;6278073;28;20053;-82
2023/08/20 03:21:28;;;;;;;14.18;11.80;;;20.70;99.90;;;;;;6278294;28;20518;-82
2023/08/20 03:24:30;;;;;;;13.45;12.18;;;20.60;99.90;;;;;;6277673;28;20037;-83
2023/08/20 03:27:32;;;;;;;16.38;12.00;;;20.50;99.90;;;;;;6278137;28;20036;-83
2023/08/20 03:30:35;;;;;;;14.85;11.88;;;20.40;99.90;;;;;;6281176;28;20052;-83
2023/08/20 03:33:36;;;;;;;13.93;12.63;;;20.50;99.90;;;;;;6297269;28;20041;-84
2023/08/20 03:36:38;;;;;;;15.23;12.38;;;20.50;99.90;;;;;;6285735;28;20056;-84
2023/08/20 03:39:40;;;;;;;15.57;12.57;;;20.50;99.90;;;;;;6284229;28;20055;-84
2023/08/20 03:42:41;;;;;;;15.45;12.70;;;20.50;99.90;;;;;;6295790;28;20057;-83
2023/08/20 03:45:44;;;;;;;15.00;13.10;;;20.50;99.90;;;;;;6306283;28;20040;-84
2023/08/20 03:48:46;;;;;;;14.23;12.52;;;20.50;99.90;;;;;;6307189;28;20055;-83
2023/08/20 03:51:47;;;;;;;14.30;12.95;;;20.40;99.90;;;;;;6308458;28;20120;-84
2023/08/20 03:54:50;;;;;;;15.35;12.68;;;20.50;99.90;;;;;;6308960;28;20059;-83
2023/08/20 03:57:51;;;;;;;18.73;11.50;;;20.50;99.90;;;;;;6308435;28;20048;-83
2023/08/20 04:00:54;;;;;;;17.55;11.48;;;20.50;99.90;;;;;;6308384;28;20388;-83
2023/08/20 04:03:56;;;;;;;12.60;11.38;;;20.50;99.90;;;;;;6309269;28;20683;-82
2023/08/20 04:06:58;;;;;;;12.48;11.38;;;20.40;99.90;;;;;;6308254;28;20522;-81
2023/08/20 04:10:00;;;;;;;14.60;11.18;;;20.40;99.90;;;;;;6308938;28;20497;-83
2023/08/20 04:13:01;;;;;;;13.13;11.88;;;20.40;99.90;;;;;;6308513;28;20044;-82
2023/08/20 04:16:04;;;;;;;12.18;10.98;;;20.40;99.90;;;;;;6309393;28;20411;-84
2023/08/20 04:19:06;;;;;;;11.80;10.63;;;20.40;99.90;;;;;;6309410;28;20044;-83
2023/08/20 04:22:08;;;;;;;13.60;10.55;;;20.40;99.90;;;;;;6308971;28;20053;-85
2023/08/20 04:25:09;;;;;;;12.00;11.02;;;20.40;99.90;;;;;;6308042;28;20391;-84
2023/08/20 04:28:11;;;;;;;14.20;12.80;;;20.40;99.90;;;;;;6308222;28;20051;-82
2023/08/20 04:31:14;;;;;;;13.80;12.60;;;20.40;99.90;;;;;;6308622;28;20048;-82
2023/08/20 04:34:16;;;;;;;13.75;12.40;;;20.40;99.90;;;;;;6309353;28;20041;-83
2023/08/20 04:37:17;;;;;;;16.77;12.45;;;20.40;99.90;;;;;;6309756;28;20044;-83
2023/08/20 04:40:19;;;;;;;14.10;12.60;;;20.40;99.90;;;;;;6309364;28;20052;-83
2023/08/20 04:43:21;;;;;;;12.50;10.88;;;20.40;99.90;;;;;;6308531;28;20546;-82
2023/08/20 04:46:24;;;;;;;15.02;12.15;;;20.40;99.90;;;;;;6306042;28;20112;-83
2023/08/20 04:49:28;;;;;;;12.43;11.25;;;20.50;99.90;;;;;;6308998;28;20053;-83
2023/08/20 04:52:29;;;;;;;19.10;13.52;;;20.50;99.90;;;;;;6308380;28;20127;-83
2023/08/20 04:55:31;;;;;;;14.95;11.20;;;20.50;99.90;;;;;;6301102;28;20058;-83
2023/08/20 04:58:33;;;;;;;11.98;10.73;;;20.50;99.90;;;;;;6306821;28;20044;-83
2023/08/20 05:01:36;;;;;;;11.55;10.45;;;20.60;99.90;;;;;;6306735;28;20054;-83
2023/08/20 05:04:37;;;;;;;15.90;12.10;;;20.70;99.90;;;;;;6309188;28;20049;-82
2023/08/20 05:07:40;;;;;;;11.30;10.15;;;20.70;99.90;;;;;;6307710;28;20048;-84
2023/08/20 05:10:41;;;;;;;12.20;11.10;;;20.80;99.90;;;;;;6307310;28;20583;-84
2023/08/20 05:13:46;;;;;;;13.27;11.82;;;21.00;99.90;;;;;;6308350;28;20048;-82
2023/08/20 05:16:49;;;;;;;10.18;9.23;;;21.10;99.90;;;;;;6308622;28;20431;-81
2023/08/20 05:19:50;;;;;;;19.58;12.23;;;21.20;99.90;;;;;;6311209;28;20044;-83
2023/08/20 05:22:52;;;;;;;10.68;9.68;;;21.40;99.90;;;;;;6314508;28;20055;-81
2023/08/20 05:25:54;;;;;;;10.40;9.20;;;21.60;99.90;;;;;;6313595;28;20048;-83
2023/08/20 05:28:55;;;;;;;11.68;10.20;;;21.80;99.90;;;;;;6312692;28;20044;-82
2023/08/20 05:31:58;;;;;;;11.85;8.27;;;22.00;99.90;;;;;;6311492;28;20060;-84
2023/08/20 05:35:00;;;;;;;10.25;8.63;;;22.20;99.90;;;;;;6312268;28;20515;-82
2023/08/20 05:38:02;;;;;;;12.32;9.57;;;22.50;99.90;;;;;;6303699;28;20496;-82
2023/08/20 05:41:03;;;;;;;9.25;8.30;;;22.90;99.90;;;;;;6289215;28;20047;-85
2023/08/20 05:44:05;;;;;;;10.55;7.40;;;23.20;99.90;;;;;;6288333;28;20059;-83
2023/08/20 05:47:08;;;;;;;8.48;7.60;;;23.40;99.90;;;;;;6289774;28;20071;-84
2023/08/20 05:50:10;;;;;;;8.25;7.45;;;23.60;99.90;;;;;;6287797;28;20397;-81
2023/08/20 05:53:12;;;;;;;9.00;8.07;;;23.70;99.90;;;;;;6289465;28;20535;-83
2023/08/20 05:56:14;;;;;;;12.63;10.05;;;23.90;99.90;;;;;;6289117;28;20059;-83
2023/08/20 05:59:15;;;;;;;8.75;7.40;;;24.00;99.90;;;;;;6287677;28;20053;-84
2023/08/20 06:02:19;;;;;;;9.02;8.27;;;24.20;99.90;;;;;;6286026;28;20049;-82
2023/08/20 06:05:20;;;;;;;10.38;8.18;;;24.30;99.90;;;;;;6286596;28;20055;-84
2023/08/20 06:08:22;;;;;;;13.38;9.25;;;24.30;99.90;;;;;;6287149;28;20045;-83
2023/08/20 06:11:24;;;;;;;8.88;7.57;;;24.40;99.90;;;;;;6286916;28;20075;-82
2023/08/20 06:14:25;;;;;;;8.98;8.02;;;24.50;99.90;;;;;;6285790;28;20045;-82
2023/08/20 06:17:28;;;;;;;9.82;7.90;;;24.60;99.90;;;;;;6284538;28;20392;-83
2023/08/20 06:20:30;;;;;;;11.77;7.95;;;24.60;99.90;;;;;;6285229;28;20569;-82
2023/08/20 06:23:32;;;;;;;10.90;8.98;;;24.60;99.90;;;;;;6286639;28;20566;-83
2023/08/20 06:26:33;;;;;;;10.93;8.82;;;24.50;99.90;;;;;;6284768;28;20049;-83
2023/08/20 06:29:35;;;;;;;10.48;8.40;;;24.70;99.90;;;;;;6284274;28;20056;-82
2023/08/20 06:32:38;;;;;;;9.68;8.38;;;24.80;99.90;;;;;;6284452;28;20045;-83
2023/08/20 06:35:41;;;;;;;11.68;8.77;;;25.20;99.90;;;;;;6286882;28;20059;-83
2023/08/20 06:38:43;;;;;;;9.63;7.93;;;25.90;99.90;;;;;;6290694;28;20044;-82
2023/08/20 06:41:44;;;;;;;9.48;7.30;;;26.40;99.90;;;;;;6256950;28;20044;-85
2023/08/20 06:44:46;;;;;;;13.60;8.13;;;26.90;99.90;;;;;;6359308;22;20408;-81
2023/08/20 06:47:49;;;;;;;12.52;7.50;;;27.50;99.90;;;;;;6293308;28;20056;-82
2023/08/20 06:50:51;;;;;;;9.10;8.32;;;28.10;99.90;;;;;;6308430;28;20048;-82
2023/08/20 06:53:53;;;;;;;9.60;8.07;;;28.60;99.90;;;;;;6298176;28;20045;-82
2023/08/20 06:56:54;;;;;;;11.32;7.80;;;29.10;99.90;;;;;;6290698;28;20041;-83
2023/08/20 06:59:56;;;;;;;6.93;6.32;;;29.60;99.90;;;;;;6285409;28;20068;-83
2023/08/20 07:02:59;;;;;;;8.02;7.32;;;30.20;99.90;;;;;;6288378;28;20045;-82
2023/08/20 07:06:01;;;;;;;11.43;6.40;;;30.60;99.90;;;;;;6288971;28;20512;-82
2023/08/20 07:09:03;;;;;;;7.68;6.90;;;31.00;99.90;;;;;;6289364;28;20044;-82
2023/08/20 07:12:05;;;;;;;8.85;7.63;;;31.20;97.80;;;;;;6288010;28;20057;-82
2023/08/20 07:15:08;;;;;;;6.97;6.32;;;31.00;96.10;;;;;;6289562;28;20045;-82
2023/08/20 07:18:13;;;;;;;13.20;6.22;;;30.90;95.60;;;;;;6286438;28;20041;-82
2023/08/20 07:21:14;;;;;;;9.35;7.55;;;30.80;95.10;;;;;;6286813;28;20049;-82
2023/08/20 07:24:16;;;;;;;7.70;6.97;;;30.40;95.10;;;;;;6285026;28;20045;-82
2023/08/20 07:27:18;;;;;;;9.18;6.50;;;30.10;95.40;;;;;;6287049;28;20044;-81
2023/08/20 07:30:19;;;;;;;8.63;6.78;;;29.90;95.50;;;;;;6282882;28;20059;-81
2023/08/20 07:33:22;;;;;;;7.38;6.22;;;29.90;95.30;;;;;;6283393;28;20460;-81
2023/08/20 07:36:26;;;;;;;11.07;8.00;;;29.80;95.30;;;;;;6280579;28;20041;-82
2023/08/20 07:39:27;;;;;;;10.50;6.32;;;29.70;95.30;;;;;;6280244;28;20078;-83
2023/08/20 07:42:29;;;;;;;7.25;6.55;;;29.60;95.30;;;;;;6278694;28;20048;-83
2023/08/20 07:45:31;;;;;;;8.32;7.50;;;29.70;95.40;;;;;;6282426;28;20041;-82
2023/08/20 07:48:34;;;;;;;9.57;7.50;;;29.80;95.20;;;;;;6279224;28;20041;-84
2023/08/20 07:51:36;;;;;;;7.60;6.88;;;30.00;94.90;;;;;;6281995;28;20059;-81
2023/08/20 07:54:37;;;;;;;8.95;7.35;;;30.20;94.50;;;;;;6279998;28;20044;-81
2023/08/20 07:57:39;;;;;;;7.60;6.82;;;30.30;94.30;;;;;;6273723;28;20048;-82
2023/08/20 08:00:41;;;;;;;7.80;6.70;;;30.50;94.10;;;;;;6259490;28;20099;-82
2023/08/20 08:03:44;;;;;;;6.75;6.05;;;30.60;93.80;;;;;;6254423;28;20045;-82
2023/08/20 08:06:46;;;;;;;8.95;6.75;;;30.70;93.40;;;;;;6260927;28;20045;-82
2023/08/20 08:09:48;;;;;;;8.25;7.05;;;30.60;93.30;;;;;;6278604;28;20049;-82
2023/08/20 08:12:49;;;;;;;10.00;7.82;;;30.70;93.20;;;;;;6278253;28;20048;-82
2023/08/20 08:15:52;;;;;;;10.73;8.00;;;30.70;93.00;;;;;;6278258;28;20056;-81
2023/08/20 08:18:55;;;;;;;7.45;6.75;;;30.80;92.90;;;;;;6281627;28;20057;-83
2023/08/20 08:21:57;;;;;;;7.93;6.82;;;31.00;92.70;;;;;;6280980;28;20049;-82
2023/08/20 08:24:59;;;;;;;7.40;6.75;;;31.10;92.80;;;;;;6279826;28;20076;-82
2023/08/20 08:28:01;;;;;;;8.73;6.45;;;31.30;92.20;;;;;;6274595;28;20045;-82
2023/08/20 08:31:03;;;;;;;8.32;7.43;;;31.40;92.00;;;;;;6279605;28;20049;-82
2023/08/20 08:34:06;;;;;;;7.97;6.93;;;31.50;91.70;;;;;;6278782;28;20072;-82
2023/08/20 08:37:07;;;;;;;7.60;7.00;;;31.40;91.30;;;;;;6277979;28;20052;-83
2023/08/20 08:40:10;;;;;;;7.93;7.03;;;31.30;91.20;;;;;;6274761;28;20523;-83
2023/08/20 08:43:16;;;;;;;8.55;7.30;;;31.20;91.30;;;;;;6271716;28;20048;-82
2023/08/20 08:46:19;;;;;;;10.88;7.80;;;31.30;91.40;;;;;;6274524;28;20041;-82
2023/08/20 08:49:22;;;;;;;7.35;6.57;;;31.50;91.30;;;;;;6271935;28;20045;-82
2023/08/20 08:52:25;;;;;;;12.13;7.70;;;31.80;91.00;;;;;;6273592;28;20048;-82
2023/08/20 08:55:27;;;;;;;10.68;7.80;;;32.00;90.70;;;;;;6275036;28;20045;-82
2023/08/20 08:58:29;;;;;;;8.38;7.15;;;32.10;90.40;;;;;;6274413;28;20044;-84
2023/08/20 09:01:30;;;;;;;6.90;6.38;;;32.00;90.10;;;;;;6276337;28;20567;-83
2023/08/20 09:04:34;;;;;;;9.68;6.90;;;32.00;90.30;;;;;;6277374;28;20365;-83
2023/08/20 09:07:35;;;;;;;10.38;7.65;;;32.20;90.00;;;;;;6275560;28;20056;-83
2023/08/20 09:10:39;;;;;;;8.15;7.00;;;32.30;89.40;;;;;;6274428;28;20048;-82
2023/08/20 09:13:43;;;;;;;7.72;6.80;;;32.30;88.80;;;;;;6266898;28;20041;-81
2023/08/20 09:16:45;;;;;;;11.05;7.57;;;32.30;88.50;;;;;;6272809;28;20045;-82
2023/08/20 09:19:48;;;;;;;9.07;6.57;;;32.50;88.40;;;;;;6274507;28;20045;-84
2023/08/20 09:22:50;;;;;;;8.05;7.15;;;32.70;87.30;;;;;;6273647;28;20052;-82
2023/08/20 09:25:54;;;;;;;8.82;6.90;;;32.60;86.80;;;;;;6274209;28;20052;-81
2023/08/20 09:28:57;;;;;;;10.20;7.60;;;32.70;87.10;;;;;;6274343;28;20056;-81
2023/08/20 09:32:02;;;;;;;7.63;7.03;;;32.90;86.20;;;;;;6275083;28;20056;-81
2023/08/20 09:35:06;;;;;;;7.63;6.70;;;32.90;85.60;;;;;;6275737;28;20049;-82
2023/08/20 09:38:08;;;;;;;9.00;6.85;;;33.00;85.60;;;;;;6275308;28;20103;-83
2023/08/20 09:41:12;;;;;;;9.75;7.32;;;33.20;84.90;;;;;;6275309;28;20510;-83
2023/08/20 09:44:16;;;;;;;6.90;6.25;;;33.30;84.50;;;;;;6274577;28;20041;-83
2023/08/20 09:47:19;;;;;;;7.47;5.97;;;33.60;84.00;;;;;;6274714;28;20052;-82
2023/08/20 09:50:23;;;;;;;11.30;7.32;;;33.90;82.70;;;;;;6273649;28;20055;-83
2023/08/20 09:53:28;;;;;;;8.95;7.53;;;34.10;81.70;;;;;;6275547;28;20049;-82
2023/08/20 09:56:31;;;;;;;7.22;6.18;;;34.20;81.10;;;;;;6275660;28;20041;-81
2023/08/20 09:59:35;;;;;;;9.13;7.30;;;34.30;80.80;;;;;;6275460;28;20060;-82
2023/08/20 10:02:38;;;;;;;9.30;6.57;;;34.50;80.50;;;;;;6275881;28;20068;-82
2023/08/20 10:05:41;;;;;;;9.77;7.28;;;34.70;79.70;;;;;;6276484;28;20051;-82
2023/08/20 10:08:43;;;;;;;6.93;6.32;;;34.80;78.70;;;;;;6279842;28;20052;-81
2023/08/20 10:11:45;;;;;;;10.55;6.40;;;34.80;77.80;;;;;;6279875;28;20053;-82
2023/08/20 10:14:47;;;;;;;7.80;6.45;;;34.80;77.80;;;;;;6280503;28;20438;-81
2023/08/20 10:17:51;;;;;;;10.18;6.35;;;34.90;76.40;;;;;;6279448;28;20041;-83
2023/08/20 10:20:54;;;;;;;8.77;6.45;;;34.80;76.10;;;;;;6278863;28;20041;-83
2023/08/20 10:23:55;;;;;;;6.80;6.13;;;34.80;75.30;;;;;;6279376;28;20053;-82
2023/08/20 10:27:09;;;;;;;8.52;6.32;;;34.80;75.30;;;;;;6278823;28;20052;-83
2023/08/20 10:30:15;;;;;;;11.35;6.47;;;34.80;75.30;;;;;;6278037;28;20083;-82
2023/08/20 10:33:18;;;;;;;8.32;6.32;;;34.90;75.30;;;;;;6278029;28;20132;-82
2023/08/20 10:36:26;;;;;;;7.43;6.75;;;35.20;74.40;;;;;;6279371;28;20044;-82
2023/08/20 10:39:27;;;;;;;7.20;6.45;;;35.40;74.00;;;;;;6278221;28;20090;-84
2023/08/20 10:42:29;;;;;;;7.85;6.70;;;35.40;73.70;;;;;;6276197;28;20065;-82
2023/08/20 10:45:31;;;;;;;6.50;5.90;;;35.40;73.20;;;;;;6276969;28;20033;-83
2023/08/20 10:48:34;;;;;;;13.52;6.22;;;35.60;72.70;;;;;;6277128;28;20052;-82
2023/08/20 10:51:40;;;;;;;8.40;6.00;;;35.90;71.10;;;;;;6278179;28;20045;-81
2023/08/20 10:54:42;;;;;;;9.57;5.78;;;35.90;70.10;;;;;;6278148;28;20057;-81
2023/08/20 10:57:43;;;;;;;5.70;5.20;;;35.80;69.90;;;;;;6277909;28;20044;-81
2023/08/20 11:00:45;;;;;;;5.22;4.75;;;35.90;69.10;;;;;;6277861;28;20044;-81
2023/08/20 11:03:49;;;;;;;5.80;5.20;;;35.80;68.20;;;;;;6275641;28;20056;-80
2023/08/20 11:06:54;;;;;;;4.85;4.45;;;35.80;68.40;;;;;;6277700;28;20412;-80
2023/08/20 11:09:57;;;;;;;12.57;5.00;;;36.00;68.00;;;;;;6272604;28;20049;-80
2023/08/20 11:13:03;;;;;;;6.35;4.63;;;36.40;67.10;;;;;;6272150;28;20049;-80
2023/08/20 11:16:06;;;;;;;7.35;5.55;;;36.60;66.40;;;;;;6271886;28;20484;-81
2023/08/20 11:26:45;;;;;;;8.23;5.10;;;35.80;65.30;;;;;;6343857;27;20345;-81
2023/08/20 11:29:46;;;;;;;5.35;4.82;;;35.80;66.00;;;;;;6344170;28;20100;-81
2023/08/20 11:32:52;;;;;;;5.85;5.07;;;36.10;65.30;;;;;;6339641;28;20093;-78
2023/08/20 11:35:54;;;;;;;6.15;5.03;;;36.20;65.00;;;;;;6293773;28;20132;-80
2023/08/20 11:38:56;;;;;;;6.07;5.22;;;36.10;64.40;;;;;;6249227;28;20056;-79
2023/08/20 11:42:00;;;;;;;12.02;5.95;;;36.10;64.80;;;;;;6296615;28;20045;-79
2023/08/20 11:45:02;;;;;;;5.05;4.50;;;36.40;65.30;;;;;;6317355;28;20129;-79
2023/08/20 11:48:04;;;;;;;5.40;4.90;;;36.60;64.60;;;;;;6318819;28;20074;-80
2023/08/20 11:51:05;;;;;;;7.03;5.68;;;37.00;63.40;;;;;;6319490;28;20056;-78
2023/08/20 11:54:09;;;;;;;7.70;5.45;;;36.90;63.10;;;;;;6318606;28;20522;-79
2023/08/20 11:57:12;;;;;;;5.57;4.95;;;36.90;63.00;;;;;;6318572;28;20055;-79
2023/08/20 12:00:26;;;;;;;8.05;5.20;;;37.10;62.70;;;;;;6319064;28;20055;-80
2023/08/20 12:03:30;;;;;;;7.97;6.13;;;37.10;62.30;;;;;;6318702;28;20056;-78
2023/08/20 12:06:32;;;;;;;5.72;4.88;;;37.10;62.00;;;;;;6319488;28;20067;-78
2023/08/20 12:09:34;;;;;;;6.18;5.15;;;37.20;61.90;;;;;;6319194;28;20074;-78
2023/08/20 12:12:37;;;;;;;8.35;5.38;;;37.20;61.60;;;;;;6313520;28;20072;-78
2023/08/20 12:15:39;;;;;;;4.97;4.47;;;37.20;61.60;;;;;;6295257;28;20044;-78
2023/08/20 12:18:40;;;;;;;5.75;5.25;;;37.60;61.10;;;;;;6294143;28;20076;-79
2023/08/20 12:21:43;;;;;;;10.60;5.68;;;38.30;60.20;;;;;;6296726;28;20393;-78
2023/08/20 12:24:44;;;;;;;6.38;4.53;;;38.50;59.60;;;;;;6305004;28;20040;-78
2023/08/20 12:27:47;;;;;;;5.65;4.43;;;38.70;58.60;;;;;;6322171;28;20048;-79
2023/08/20 12:30:49;;;;;;;6.30;4.60;;;39.20;56.80;;;;;;6297553;28;20045;-80
2023/08/20 12:33:51;;;;;;;5.20;4.53;;;39.60;55.40;;;;;;6295620;28;20045;-78
2023/08/20 12:36:52;;;;;;;6.10;5.50;;;39.40;55.00;;;;;;6285629;28;20053;-78
2023/08/20 12:39:54;;;;;;;10.48;5.53;;;39.30;55.20;;;;;;6280874;28;20428;-78
2023/08/20 12:42:57;;;;;;;9.23;4.88;;;39.10;54.80;;;;;;6304742;28;20048;-78
2023/08/20 12:45:59;;;;;;;7.22;5.30;;;38.80;55.70;;;;;;6285864;28;20041;-77
2023/08/20 12:49:00;;;;;;;7.10;5.03;;;38.80;55.60;;;;;;6280374;28;20053;-79
2023/08/20 12:52:02;;;;;;;6.90;5.28;;;38.70;55.80;;;;;;6281010;28;20049;-78
2023/08/20 12:55:05;;;;;;;6.60;4.85;;;38.70;56.20;;;;;;6279237;28;20099;-79
2023/08/20 12:58:08;;;;;;;4.50;4.20;;;39.10;55.70;;;;;;6270484;28;20045;-79
2023/08/20 13:01:10;;;;;;;5.28;3.72;;;39.60;54.80;;;;;;6280321;28;20049;-78
2023/08/20 13:04:13;;;;;;;12.65;5.15;;;40.00;53.90;;;;;;6284326;28;20427;-78
2023/08/20 13:07:16;;;;;;;8.10;4.32;;;40.40;53.40;;;;;;6306872;28;20048;-79
2023/08/20 13:10:18;;;;;;;4.13;3.72;;;40.50;53.00;;;;;;6305883;28;20063;-79
2023/08/20 13:13:22;;;;;;;7.20;4.13;;;40.50;52.80;;;;;;6292616;28;20419;-79
2023/08/20 13:16:25;;;;;;;5.40;4.25;;;40.60;52.50;;;;;;6281802;28;20047;-78
2023/08/20 13:19:26;;;;;;;7.88;4.85;;;40.90;51.60;;;;;;6281566;28;20049;-78
2023/08/20 13:22:28;;;;;;;8.70;5.00;;;40.90;51.70;;;;;;6283241;28;20055;-79
2023/08/20 13:25:29;;;;;;;6.07;4.88;;;41.20;51.40;;;;;;6298718;28;20052;-79
2023/08/20 13:28:33;;;;;;;6.97;5.40;;;41.20;51.10;;;;;;6300651;28;20064;-79
2023/08/20 13:31:35;;;;;;;8.20;4.18;;;41.20;51.00;;;;;;6281295;28;20079;-79
2023/08/20 13:34:37;;;;;;;6.18;5.38;;;41.00;51.00;;;;;;6279969;28;20047;-80
2023/08/20 13:37:39;;;;;;;5.97;5.15;;;40.80;50.80;;;;;;6278506;28;20052;-80
2023/08/20 13:40:40;;;;;;;4.72;4.32;;;40.70;50.40;;;;;;6279985;28;20036;-80
2023/08/20 13:43:43;;;;;;;5.82;4.97;;;40.60;50.90;;;;;;6279239;28;20056;-79
2023/08/20 13:46:45;;;;;;;11.18;5.22;;;40.90;50.70;;;;;;6279634;28;20052;-79
2023/08/20 13:49:47;;;;;;;5.03;4.53;;;40.80;50.50;;;;;;6276230;28;20049;-80
2023/08/20 13:52:48;;;;;;;6.88;4.03;;;40.60;50.40;;;;;;6275470;28;20128;-80
2023/08/20 13:55:50;;;;;;;5.03;3.97;;;40.60;50.30;;;;;;6273965;28;20059;-81
2023/08/20 13:58:53;;;;;;;5.85;4.72;;;40.60;50.30;;;;;;6275179;28;20053;-80
2023/08/20 14:01:55;;;;;;;5.30;4.65;;;40.60;50.30;;;;;;6270202;28;20071;-81
2023/08/20 14:04:57;;;;;;;8.35;4.70;;;40.50;50.10;;;;;;6271242;28;20056;-80
2023/08/20 14:07:59;;;;;;;10.38;5.25;;;40.60;50.00;;;;;;6273845;28;20053;-80
2023/08/20 14:11:00;;;;;;;7.30;4.40;;;40.70;49.90;;;;;;6274348;28;20067;-80
2023/08/20 14:14:03;;;;;;;5.57;4.28;;;40.90;49.60;;;;;;6274690;28;20059;-80
2023/08/20 14:17:05;;;;;;;3.85;3.55;;;41.10;49.00;;;;;;6284294;28;20049;-80
2023/08/20 14:20:11;;;;;;;5.75;4.75;;;41.30;48.70;;;;;;6296345;28;20052;-80
2023/08/20 14:23:12;;;;;;;4.88;4.07;;;41.30;48.20;;;;;;6267788;28;20143;-80
2023/08/20 14:26:15;;;;;;;6.40;4.18;;;41.30;48.00;;;;;;6274399;28;20500;-81
2023/08/20 14:29:18;;;;;;;10.32;3.80;;;41.30;47.80;;;;;;6276665;28;20045;-80
2023/08/20 14:32:20;;;;;;;5.35;4.30;;;41.30;47.40;;;;;;6276732;28;20037;-80
2023/08/20 14:35:21;;;;;;;7.57;4.63;;;41.30;47.30;;;;;;6277871;28;20049;-81
2023/08/20 14:38:23;;;;;;;5.22;4.28;;;41.40;47.10;;;;;;6276345;28;20049;-81
2023/08/20 14:41:25;;;;;;;5.97;3.97;;;41.50;47.00;;;;;;6275371;28;20045;-79
2023/08/20 14:44:28;;;;;;;4.03;3.72;;;41.40;46.80;;;;;;6275513;28;20412;-81
2023/08/20 14:47:30;;;;;;;4.50;4.20;;;41.40;46.90;;;;;;6275758;28;20511;-81
2023/08/20 14:50:31;;;;;;;5.78;4.15;;;41.30;46.90;;;;;;6275372;28;20052;-81
2023/08/20 14:53:33;;;;;;;6.63;4.57;;;41.50;46.70;;;;;;6275508;28;20052;-81
2023/08/20 14:56:35;;;;;;;11.07;5.32;;;41.60;46.40;;;;;;6275109;28;20047;-81
2023/08/20 14:59:38;;;;;;;5.35;4.90;;;41.60;46.30;;;;;;6282704;28;20045;-81
2023/08/20 15:02:40;;;;;;;4.45;4.03;;;41.50;46.30;;;;;;6285012;28;20048;-81
2023/08/20 15:05:41;;;;;;;4.60;4.20;;;41.60;46.10;;;;;;6275298;28;20041;-81
2023/08/20 15:08:43;;;;;;;4.53;4.13;;;41.50;46.00;;;;;;6276125;28;20041;-81
2023/08/20 15:11:45;;;;;;;5.05;3.90;;;41.40;45.70;;;;;;6276739;28;20052;-81
2023/08/20 15:14:48;;;;;;;8.38;4.20;;;41.40;46.00;;;;;;6272556;28;20682;-80
2023/08/20 15:17:51;;;;;;;10.30;5.20;;;41.70;45.60;;;;;;6274523;28;20045;-81
2023/08/20 15:20:56;;;;;;;4.22;3.47;;;41.80;45.60;;;;;;6265692;28;20045;-81
2023/08/20 15:23:58;;;;;;;4.93;4.50;;;41.60;45.40;;;;;;6275074;28;20060;-80
2023/08/20 15:27:00;;;;;;;4.25;3.80;;;41.20;46.00;;;;;;6275068;28;20048;-79
2023/08/20 15:30:04;;;;;;;4.65;4.07;;;41.10;46.20;;;;;;6274317;28;20056;-80
2023/08/20 15:33:06;;;;;;;4.05;3.60;;;41.10;46.20;;;;;;6286580;28;20041;-80
2023/08/20 15:36:07;;;;;;;9.85;3.95;;;41.40;45.90;;;;;;6303389;28;20044;-79
2023/08/20 15:39:09;;;;;;;6.03;3.85;;;41.60;45.60;;;;;;6302603;28;20052;-80
2023/08/20 15:42:11;;;;;;;5.95;4.43;;;41.70;45.40;;;;;;6302826;28;20041;-80
2023/08/20 15:45:14;;;;;;;5.93;4.28;;;41.80;45.10;;;;;;6304833;28;20411;-80
2023/08/20 15:48:16;;;;;;;8.27;4.18;;;42.00;44.80;;;;;;6304110;28;20503;-80